createdAt,value
2022-09-20T00:01:13.713Z,13.07
2022-09-20T00:03:42.526Z,13.60
2022-09-20T00:06:13.087Z,13.57
2022-09-20T00:08:40.336Z,13.93
2022-09-20T00:11:10.966Z,12.73
2022-09-20T00:13:38.189Z,13.03
2022-09-20T00:16:10.679Z,13.33
2022-09-20T00:18:40.098Z,12.83
2022-09-20T00:21:07.054Z,13.97
2022-09-20T00:23:33.831Z,12.93
2022-09-20T00:26:01.539Z,13.10
2022-09-20T00:28:28.858Z,12.70
2022-09-20T00:30:58.214Z,12.50
2022-09-20T00:33:25.218Z,13.10
2022-09-20T00:35:51.931Z,13.13
2022-09-20T00:38:18.606Z,13.67
2022-09-20T00:40:45.528Z,13.67
2022-09-20T00:43:18.313Z,13.17
2022-09-20T00:45:46.283Z,12.93
2022-09-20T00:48:22.484Z,13.63
2022-09-20T00:50:54.689Z,13.33
2022-09-20T00:53:32.093Z,15.23
2022-09-20T00:55:58.776Z,14.53
2022-09-20T00:58:25.966Z,14.20
2022-09-20T01:00:52.704Z,13.97
2022-09-20T01:03:23.078Z,14.43
2022-09-20T01:05:53.238Z,14.67
2022-09-20T01:08:20.481Z,14.73
2022-09-20T01:10:47.359Z,14.80
2022-09-20T01:13:14.503Z,15.43
2022-09-20T01:15:43.528Z,14.83
2022-09-20T01:18:10.378Z,14.97
2022-09-20T01:20:40.923Z,14.33
2022-09-20T01:24:05.247Z,13.90
2022-09-20T01:26:38.248Z,14.70
2022-09-20T01:29:20.023Z,14.40
2022-09-20T01:31:52.634Z,14.30
2022-09-20T01:34:28.189Z,14.17
2022-09-20T01:36:56.114Z,13.83
2022-09-20T01:39:34.725Z,15.47
2022-09-20T01:42:19.513Z,15.83
2022-09-20T01:44:58.758Z,14.53
2022-09-20T01:47:31.745Z,14.60
2022-09-20T01:50:32.661Z,14.90
2022-09-20T01:53:20.941Z,15.10
2022-09-20T01:56:09.275Z,14.27
2022-09-20T01:59:19.404Z,15.00
2022-09-20T02:01:47.842Z,15.00
2022-09-20T02:04:49.800Z,14.37
2022-09-20T02:07:39.054Z,14.53
2022-09-20T02:10:14.761Z,15.80
2022-09-20T02:12:50.093Z,15.40
2022-09-20T02:15:48.623Z,15.10
2022-09-20T02:18:28.821Z,13.97
2022-09-20T02:21:05.593Z,13.43
2022-09-20T02:23:47.221Z,14.13
2022-09-20T02:26:16.981Z,14.87
2022-09-20T02:28:54.620Z,14.17
2022-09-20T02:31:43.324Z,14.03
2022-09-20T02:34:10.070Z,14.37
2022-09-20T02:36:54.678Z,14.50
2022-09-20T02:39:23.289Z,14.43
2022-09-20T02:42:23.459Z,13.23
2022-09-20T02:44:55.595Z,14.50
2022-09-20T02:47:27.809Z,14.40
2022-09-20T02:50:15.733Z,14.63
2022-09-20T02:52:48.461Z,15.47
2022-09-20T02:55:21.195Z,15.90
2022-09-20T02:58:05.979Z,14.23
2022-09-20T03:01:11.659Z,15.13
2022-09-20T03:03:44.480Z,15.37
2022-09-20T03:06:22.931Z,14.60
2022-09-20T03:09:04.318Z,15.93
2022-09-20T03:12:16.313Z,15.87
2022-09-20T03:14:54.538Z,15.87
2022-09-20T03:17:31.537Z,15.10
2022-09-20T03:20:15.683Z,15.47
2022-09-20T03:23:10.659Z,15.57
2022-09-20T03:25:58.703Z,15.63
2022-09-20T03:28:34.961Z,14.50
2022-09-20T03:31:01.693Z,15.53
2022-09-20T03:33:59.086Z,15.07
2022-09-20T03:36:37.609Z,13.33
2022-09-20T03:39:31.284Z,13.93
2022-09-20T03:42:03.974Z,13.60
2022-09-20T03:45:04.367Z,12.83
2022-09-20T03:48:01.979Z,12.50
2022-09-20T03:50:41.204Z,12.17
2022-09-20T03:53:42.109Z,13.57
2022-09-20T03:56:27.760Z,11.87
2022-09-20T03:59:10.760Z,12.20
2022-09-20T04:02:03.851Z,11.00
2022-09-20T04:04:36.506Z,11.70
2022-09-20T04:07:36.853Z,11.20
2022-09-20T04:10:03.593Z,11.53
2022-09-20T04:13:02.551Z,9.87
2022-09-20T04:15:44.446Z,10.10
2022-09-20T04:18:43.690Z,10.67
2022-09-20T04:21:41.283Z,11.17
2022-09-20T04:24:24.037Z,11.37
2022-09-20T04:27:02.337Z,10.53
2022-09-20T04:30:05.508Z,10.93
2022-09-20T04:32:47.461Z,10.70
2022-09-20T04:35:51.614Z,10.30
2022-09-20T04:38:19.708Z,10.93
2022-09-20T04:41:08.853Z,11.10
2022-09-20T04:44:03.199Z,12.07
2022-09-20T04:46:55.909Z,11.20
2022-09-20T04:49:59.227Z,12.13
2022-09-20T04:52:28.952Z,10.50
2022-09-20T04:55:21.310Z,10.87
2022-09-20T04:58:13.797Z,12.43
2022-09-20T05:00:58.355Z,12.40
2022-09-20T05:03:37.540Z,11.60
2022-09-20T05:06:26.774Z,12.43
2022-09-20T05:08:58.859Z,12.33
2022-09-20T05:11:30.621Z,12.53
2022-09-20T05:14:28.733Z,12.50
2022-09-20T05:17:14.814Z,11.20
2022-09-20T05:20:05.527Z,11.30
2022-09-20T05:22:59.533Z,11.73
2022-09-20T05:25:41.264Z,11.87
2022-09-20T05:28:28.715Z,12.37
2022-09-20T05:31:15.701Z,10.93
2022-09-20T05:34:15.689Z,11.43
2022-09-20T05:37:13.042Z,10.33
2022-09-20T05:39:52.246Z,10.40
2022-09-20T05:42:24.071Z,9.73
2022-09-20T05:44:56.721Z,10.27
2022-09-20T05:48:01.855Z,10.60
2022-09-20T05:50:55.724Z,9.77
2022-09-20T05:54:07.988Z,10.17
2022-09-20T05:56:34.667Z,10.03
2022-09-20T05:59:11.898Z,9.97
2022-09-20T06:01:51.038Z,10.33
2022-09-20T06:04:29.078Z,10.57
2022-09-20T06:07:06.310Z,9.77
2022-09-20T06:09:42.250Z,10.67
2022-09-20T06:12:45.652Z,10.80
2022-09-20T06:15:26.679Z,10.97
2022-09-20T06:18:26.209Z,10.20
2022-09-20T06:21:20.641Z,11.00
2022-09-20T06:23:47.385Z,11.87
2022-09-20T06:26:19.833Z,11.47
2022-09-20T06:28:58.253Z,11.80
2022-09-20T06:31:27.525Z,11.63
2022-09-20T06:33:58.434Z,10.73
2022-09-20T06:36:47.461Z,11.03
2022-09-20T06:39:54.657Z,11.93
2022-09-20T06:42:25.309Z,11.40
2022-09-20T06:44:53.819Z,12.60
2022-09-20T06:47:23.350Z,12.50
2022-09-20T06:49:50.482Z,12.07
2022-09-20T06:52:18.146Z,13.00
2022-09-20T06:54:47.411Z,12.97
2022-09-20T06:57:44.116Z,12.63
2022-09-20T07:00:15.784Z,11.30
2022-09-20T07:02:45.130Z,12.73
2022-09-20T07:05:17.072Z,12.13
2022-09-20T07:07:44.328Z,12.60
2022-09-20T07:10:11.951Z,12.33
2022-09-20T07:12:39.225Z,12.30
2022-09-20T07:15:06.506Z,11.70
2022-09-20T07:17:33.889Z,11.87
2022-09-20T07:20:00.939Z,11.93
2022-09-20T07:22:27.932Z,11.37
2022-09-20T07:24:55.029Z,12.43
2022-09-20T07:27:26.464Z,11.93
2022-09-20T07:29:56.459Z,11.23
2022-09-20T07:32:23.160Z,11.80
2022-09-20T07:34:52.006Z,10.93
2022-09-20T07:37:19.420Z,12.20
2022-09-20T07:39:46.388Z,11.50
2022-09-20T07:42:13.445Z,11.67
2022-09-20T07:44:42.382Z,11.30
2022-09-20T07:47:14.062Z,11.67
2022-09-20T07:49:43.059Z,11.53
2022-09-20T07:52:11.234Z,11.63
2022-09-20T07:54:37.923Z,11.53
2022-09-20T07:57:07.159Z,12.27
2022-09-20T07:59:36.290Z,12.67
2022-09-20T08:02:03.111Z,12.30
2022-09-20T08:04:29.869Z,12.47
2022-09-20T08:06:58.984Z,11.17
2022-09-20T08:09:25.743Z,11.30
2022-09-20T08:11:53.198Z,11.43
2022-09-20T08:14:20.910Z,11.10
2022-09-20T08:16:48.497Z,11.50
2022-09-20T08:19:17.291Z,11.77
2022-09-20T08:21:46.445Z,11.13
2022-09-20T08:24:17.900Z,11.67
2022-09-20T08:26:44.759Z,11.10
2022-09-20T08:29:16.341Z,10.40
2022-09-20T08:31:43.421Z,11.00
2022-09-20T08:34:15.115Z,10.83
2022-09-20T08:36:44.214Z,10.53
2022-09-20T08:42:08.049Z,10.67
2022-09-20T08:44:46.982Z,12.00
2022-09-20T08:47:21.923Z,12.20
2022-09-20T08:49:50.117Z,13.03
2022-09-20T08:52:21.506Z,12.20
2022-09-20T08:54:48.259Z,12.77
2022-09-20T08:57:19.484Z,12.67
2022-09-20T08:59:50.384Z,12.20
2022-09-20T09:02:21.060Z,12.97
2022-09-20T09:04:48.958Z,12.77
2022-09-20T09:07:17.535Z,13.47
2022-09-20T09:09:47.379Z,13.93
2022-09-20T09:12:21.950Z,12.77
2022-09-20T09:14:48.693Z,14.33
2022-09-20T09:17:20.403Z,15.23
2022-09-20T09:20:08.588Z,14.43
2022-09-20T09:22:39.598Z,15.53
2022-09-20T09:25:15.367Z,15.13
2022-09-20T09:27:53.136Z,14.57
2022-09-20T09:30:30.242Z,14.67
2022-09-20T09:33:30.952Z,14.63
2022-09-20T09:36:07.475Z,15.87
2022-09-20T09:38:38.410Z,15.80
2022-09-20T09:41:08.472Z,14.80
2022-09-20T09:43:40.520Z,13.30
2022-09-20T09:46:18.586Z,14.10
2022-09-20T09:48:50.063Z,14.10
2022-09-20T09:51:20.720Z,13.87
2022-09-20T09:53:49.095Z,13.40
2022-09-20T09:56:30.932Z,13.13
2022-09-20T09:59:20.832Z,12.27
2022-09-20T10:02:03.727Z,11.37
2022-09-20T10:04:37.691Z,11.73
2022-09-20T10:07:12.008Z,10.87
2022-09-20T10:09:57.403Z,10.90
2022-09-20T10:12:52.000Z,11.23
2022-09-20T10:15:52.010Z,10.97
2022-09-20T10:18:31.450Z,10.33
2022-09-20T10:21:44.859Z,9.90
2022-09-20T10:24:20.536Z,10.37
2022-09-20T10:27:06.555Z,10.67
2022-09-20T10:29:46.544Z,10.93
2022-09-20T10:32:32.320Z,10.93
2022-09-20T10:35:11.608Z,13.00
2022-09-20T10:37:38.475Z,12.63
2022-09-20T10:41:05.820Z,11.93
2022-09-20T10:43:50.644Z,10.60
2022-09-20T10:46:46.609Z,10.03
2022-09-20T10:49:48.433Z,11.00
2022-09-20T10:52:31.730Z,10.43
2022-09-20T10:55:03.913Z,11.30
2022-09-20T10:57:49.850Z,11.17
2022-09-20T11:00:20.195Z,10.90
2022-09-20T11:03:42.831Z,10.40
2022-09-20T11:06:32.790Z,8.90
2022-09-20T11:09:02.235Z,8.23
2022-09-20T11:11:38.159Z,8.60
2022-09-20T11:14:11.134Z,8.17
2022-09-20T11:16:43.324Z,7.53
2022-09-20T11:19:15.359Z,7.93
2022-09-20T11:21:53.933Z,7.30
2022-09-20T11:24:25.805Z,7.60
2022-09-20T11:27:18.488Z,6.60
2022-09-20T11:29:45.209Z,7.13
2022-09-20T11:32:15.852Z,6.30
2022-09-20T11:34:50.158Z,6.13
2022-09-20T11:37:19.527Z,6.90
2022-09-20T11:39:56.042Z,6.10
2022-09-20T11:42:25.669Z,6.13
2022-09-20T11:44:52.459Z,4.77
2022-09-20T11:47:49.963Z,4.90
2022-09-20T11:50:48.551Z,4.57
2022-09-20T11:53:36.759Z,4.77
2022-09-20T11:56:05.182Z,5.03
2022-09-20T11:58:33.123Z,4.07
2022-09-20T12:00:59.881Z,4.20
2022-09-20T12:03:45.062Z,4.10
2022-09-20T12:06:25.083Z,4.27
2022-09-20T12:08:52.045Z,4.00
2022-09-20T12:11:36.310Z,5.63
2022-09-20T12:14:07.281Z,3.90
2022-09-20T12:16:37.117Z,3.80
2022-09-20T12:19:07.400Z,3.90
2022-09-20T12:21:59.079Z,3.80
2022-09-20T12:24:32.801Z,3.60
2022-09-20T12:27:00.825Z,3.13
2022-09-20T12:29:29.477Z,3.60
2022-09-20T12:31:58.313Z,3.60
2022-09-20T12:34:25.382Z,3.20
2022-09-20T12:36:54.990Z,3.20
2022-09-20T12:39:29.941Z,3.53
2022-09-20T12:42:04.092Z,3.70
2022-09-20T12:44:44.161Z,3.00
2022-09-20T12:47:13.496Z,2.97
2022-09-20T12:50:01.726Z,2.87
2022-09-20T12:52:53.218Z,2.87
2022-09-20T12:55:40.620Z,3.00
2022-09-20T12:58:15.719Z,2.80
2022-09-20T13:00:59.414Z,2.53
2022-09-20T13:03:34.771Z,2.70
2022-09-20T13:06:07.419Z,2.50
2022-09-20T13:08:52.324Z,2.50
2022-09-20T13:11:34.895Z,2.17
2022-09-20T13:14:06.633Z,2.30
2022-09-20T13:16:38.515Z,2.73
2022-09-20T13:19:12.805Z,2.70
2022-09-20T13:21:42.473Z,1.93
2022-09-20T13:24:12.462Z,2.30
2022-09-20T13:26:47.350Z,2.60
2022-09-20T13:29:38.010Z,2.20
2022-09-20T13:32:24.954Z,2.40
2022-09-20T13:35:08.303Z,1.93
2022-09-20T13:37:35.130Z,2.20
2022-09-20T13:40:01.962Z,2.40
2022-09-20T13:42:30.019Z,2.23
2022-09-20T13:44:58.652Z,3.30
2022-09-20T13:47:31.976Z,2.37
2022-09-20T13:50:03.014Z,2.40
2022-09-20T13:52:31.157Z,2.70
2022-09-20T13:54:57.879Z,3.30
2022-09-20T13:57:28.690Z,2.97
2022-09-20T13:59:55.659Z,2.57
2022-09-20T14:02:31.630Z,3.00
2022-09-20T14:05:04.704Z,2.80
2022-09-20T14:07:34.083Z,2.47
2022-09-20T14:10:01.023Z,2.40
2022-09-20T14:12:27.823Z,2.50
2022-09-20T14:14:56.649Z,2.67
2022-09-20T14:17:24.624Z,2.27
2022-09-20T14:19:53.718Z,2.53
2022-09-20T14:22:30.189Z,2.03
2022-09-20T14:25:22.720Z,1.87
2022-09-20T14:27:49.475Z,2.20
2022-09-20T14:30:32.870Z,2.10
2022-09-20T14:32:59.768Z,2.20
2022-09-20T14:35:27.314Z,2.00
2022-09-20T14:38:01.653Z,2.33
2022-09-20T14:40:47.489Z,2.73
2022-09-20T14:43:33.843Z,2.30
2022-09-20T14:46:03.692Z,2.40
2022-09-20T14:48:36.800Z,2.57
2022-09-20T14:51:14.212Z,2.60
2022-09-20T14:53:40.903Z,2.57
2022-09-20T14:56:12.887Z,2.87
2022-09-20T14:59:06.802Z,3.13
2022-09-20T15:01:34.601Z,2.80
2022-09-20T15:04:09.635Z,3.73
2022-09-20T15:06:39.477Z,3.50
2022-09-20T15:09:06.329Z,3.93
2022-09-20T15:11:33.138Z,3.80
2022-09-20T15:13:59.871Z,4.87
2022-09-20T15:16:26.579Z,4.20
2022-09-20T15:18:54.062Z,3.60
2022-09-20T15:21:21.513Z,2.57
2022-09-20T15:23:48.661Z,2.20
2022-09-20T15:26:15.471Z,2.50
2022-09-20T15:28:42.324Z,2.30
2022-09-20T15:31:13.703Z,1.97
2022-09-20T15:33:40.648Z,1.77
2022-09-20T15:36:07.799Z,1.87
2022-09-20T15:38:34.696Z,1.70
2022-09-20T15:41:04.196Z,1.57
2022-09-20T15:43:33.384Z,1.50
2022-09-20T15:46:01.962Z,1.50
2022-09-20T15:48:30.015Z,1.27
2022-09-20T15:51:02.375Z,1.40
2022-09-20T15:53:33.535Z,1.50
2022-09-20T15:56:02.065Z,1.23
2022-09-20T15:58:36.200Z,1.37
2022-09-20T16:01:08.201Z,1.50
2022-09-20T16:03:35.524Z,1.53
2022-09-20T16:06:08.771Z,1.50
2022-09-20T16:08:37.101Z,1.67
2022-09-20T16:11:04.296Z,1.33
2022-09-20T16:13:31.202Z,1.50
2022-09-20T16:15:58.969Z,1.13
2022-09-20T16:18:44.782Z,1.20
2022-09-20T16:21:16.267Z,1.50
2022-09-20T16:23:47.144Z,2.17
2022-09-20T16:26:13.901Z,1.20
2022-09-20T16:28:45.142Z,1.47
2022-09-20T16:31:33.040Z,1.40
2022-09-20T16:34:00.358Z,1.63
2022-09-20T16:36:27.731Z,1.10
2022-09-20T16:38:55.797Z,1.30
2022-09-20T16:41:26.536Z,1.40
2022-09-20T16:43:55.611Z,1.40
2022-09-20T16:46:25.551Z,1.57
2022-09-20T16:48:53.748Z,1.60
2022-09-20T16:51:25.942Z,1.37
2022-09-20T16:53:55.781Z,1.43
2022-09-20T16:56:26.042Z,1.43
2022-09-20T16:58:53.462Z,1.63
2022-09-20T17:01:25.590Z,1.57
2022-09-20T17:03:55.038Z,1.27
2022-09-20T17:06:22.225Z,1.70
2022-09-20T17:08:58.845Z,1.40
2022-09-20T17:11:29.594Z,1.50
2022-09-20T17:13:59.450Z,1.53
2022-09-20T17:16:30.496Z,1.70
2022-09-20T17:19:01.218Z,1.90
2022-09-20T17:21:28.718Z,2.23
2022-09-20T17:23:57.385Z,2.10
2022-09-20T17:26:34.969Z,2.23
2022-09-20T17:29:02.476Z,2.03
2022-09-20T17:31:33.957Z,2.40
2022-09-20T17:34:02.289Z,2.90
2022-09-20T17:36:34.620Z,2.77
2022-09-20T17:39:04.518Z,2.57
2022-09-20T17:41:37.429Z,2.73
2022-09-20T17:44:08.265Z,2.90
2022-09-20T17:46:37.291Z,3.03
2022-09-20T17:49:08.980Z,3.20
2022-09-20T17:51:43.195Z,3.20
2022-09-20T17:54:13.888Z,2.93
2022-09-20T17:56:46.562Z,2.90
2022-09-20T17:59:16.446Z,2.87
2022-09-20T18:01:43.950Z,3.17
2022-09-20T18:04:13.194Z,2.70
2022-09-20T18:06:49.614Z,3.27
2022-09-20T18:09:17.947Z,3.20
2022-09-20T18:11:50.622Z,3.00
2022-09-20T18:14:18.732Z,3.03
2022-09-20T18:16:47.821Z,3.70
2022-09-20T18:19:16.134Z,4.50
2022-09-20T18:21:43.055Z,4.23
2022-09-20T18:24:10.635Z,5.33
2022-09-20T18:26:39.803Z,5.20
2022-09-20T18:29:12.928Z,5.30
2022-09-20T18:31:43.294Z,5.33
2022-09-20T18:34:12.224Z,5.67
2022-09-20T18:36:42.321Z,6.30
2022-09-20T18:39:11.805Z,5.43
2022-09-20T18:41:41.192Z,5.30
2022-09-20T18:44:08.184Z,5.50
2022-09-20T18:46:38.164Z,6.20
2022-09-20T18:49:09.933Z,6.10
2022-09-20T18:51:39.725Z,6.27
2022-09-20T18:54:09.912Z,6.90
2022-09-20T18:56:42.479Z,7.50
2022-09-20T18:59:25.263Z,6.80
2022-09-20T19:01:55.302Z,8.50
2022-09-20T19:04:46.366Z,7.80
2022-09-20T19:07:28.520Z,7.73
2022-09-20T19:10:09.287Z,8.30
2022-09-20T19:12:48.365Z,7.93
2022-09-20T19:15:19.717Z,8.03
2022-09-20T19:18:07.420Z,8.00
2022-09-20T19:20:37.006Z,8.07
2022-09-20T19:23:06.772Z,7.67
2022-09-20T19:25:44.274Z,7.77
2022-09-20T19:28:12.100Z,11.27
2022-09-20T19:30:40.548Z,9.80
2022-09-20T19:33:17.096Z,8.37
2022-09-20T19:35:51.056Z,8.20
2022-09-20T19:38:35.304Z,6.63
2022-09-20T19:41:08.808Z,7.10
2022-09-20T19:43:45.312Z,7.20
2022-09-20T19:46:27.214Z,6.67
2022-09-20T19:49:02.495Z,6.23
2022-09-20T19:51:29.251Z,6.27
2022-09-20T19:54:00.099Z,5.90
2022-09-20T19:56:27.893Z,6.73
2022-09-20T19:58:56.105Z,6.20
2022-09-20T20:01:26.096Z,5.83
2022-09-20T20:03:53.593Z,6.20
2022-09-20T20:06:37.354Z,5.80
2022-09-20T20:09:08.600Z,5.37
2022-09-20T20:11:38.374Z,5.30
2022-09-20T20:14:18.312Z,5.33
2022-09-20T20:16:58.420Z,5.20
2022-09-20T20:19:46.698Z,5.67
2022-09-20T20:22:34.647Z,5.83
2022-09-20T20:25:01.557Z,5.50
2022-09-20T20:27:28.525Z,5.30
2022-09-20T20:29:57.796Z,5.30
2022-09-20T20:32:24.605Z,5.40
2022-09-20T20:34:51.334Z,5.43
2022-09-20T20:37:18.188Z,5.57
2022-09-20T20:39:44.969Z,5.00
2022-09-20T20:42:12.874Z,5.80
2022-09-20T20:44:40.078Z,4.53
2022-09-20T20:47:11.774Z,4.50
2022-09-20T20:49:38.844Z,5.00
2022-09-20T20:52:08.996Z,4.20
2022-09-20T20:54:37.993Z,4.53
2022-09-20T20:57:04.830Z,4.80
2022-09-20T20:59:31.609Z,5.43
2022-09-20T21:02:04.530Z,4.43
2022-09-20T21:04:40.733Z,4.87
2022-09-20T21:07:10.843Z,4.60
2022-09-20T21:09:37.581Z,4.20
2022-09-20T21:12:05.124Z,4.77
2022-09-20T21:14:35.178Z,4.60
2022-09-20T21:17:02.534Z,4.30
2022-09-20T21:19:31.446Z,3.80
2022-09-20T21:22:00.290Z,3.87
2022-09-20T21:24:27.192Z,3.93
2022-09-20T21:26:53.908Z,3.80
2022-09-20T21:29:20.855Z,3.97
2022-09-20T21:31:50.077Z,3.40
2022-09-20T21:34:16.973Z,3.40
2022-09-20T21:36:44.803Z,3.87
2022-09-20T21:39:11.850Z,3.73
2022-09-20T21:41:41.129Z,4.00
2022-09-20T21:44:09.963Z,3.87
2022-09-20T21:46:40.719Z,4.33
2022-09-20T21:49:08.704Z,3.80
2022-09-20T21:51:35.783Z,3.93
2022-09-20T21:54:02.878Z,4.37
2022-09-20T21:56:31.449Z,4.33
2022-09-20T21:59:04.276Z,4.47
2022-09-20T22:01:34.954Z,4.27
2022-09-20T22:04:06.539Z,4.53
2022-09-20T22:06:35.678Z,5.00
2022-09-20T22:09:15.672Z,4.67
2022-09-20T22:11:51.596Z,4.40
2022-09-20T22:14:19.680Z,4.43
2022-09-20T22:16:49.232Z,4.40
2022-09-20T22:19:17.192Z,4.90
2022-09-20T22:21:50.161Z,4.13
2022-09-20T22:24:17.007Z,4.60
2022-09-20T22:26:47.474Z,5.23
2022-09-20T22:29:14.663Z,5.00
2022-09-20T22:31:45.590Z,4.80
2022-09-20T22:34:30.542Z,5.10
2022-09-20T22:36:57.227Z,4.83
2022-09-20T22:39:24.130Z,4.97
2022-09-20T22:41:51.007Z,5.70
2022-09-20T22:44:22.555Z,5.80
2022-09-20T22:46:49.403Z,5.30
2022-09-20T22:49:16.117Z,5.87
2022-09-20T22:51:43.000Z,5.23
2022-09-20T22:54:10.930Z,5.23
2022-09-20T22:56:37.875Z,4.97
2022-09-20T22:59:08.864Z,5.40
2022-09-20T23:01:41.244Z,4.80
2022-09-20T23:04:11.985Z,4.67
2022-09-20T23:06:55.138Z,5.00
2022-09-20T23:09:23.645Z,5.00
2022-09-20T23:11:52.967Z,4.87
2022-09-20T23:14:23.187Z,4.77
2022-09-20T23:16:50.105Z,5.10
2022-09-20T23:19:17.306Z,4.80
2022-09-20T23:21:44.214Z,5.40
2022-09-20T23:24:16.969Z,4.43
2022-09-20T23:26:46.261Z,4.60
2022-09-20T23:29:15.015Z,4.80
2022-09-20T23:31:45.880Z,5.43
2022-09-20T23:34:16.065Z,5.17
2022-09-20T23:36:42.982Z,4.97
2022-09-20T23:39:12.314Z,5.00
2022-09-20T23:41:41.509Z,4.70
2022-09-20T23:44:09.895Z,4.93
2022-09-20T23:46:36.996Z,4.73
2022-09-20T23:49:03.884Z,4.70
2022-09-20T23:51:30.862Z,4.87
2022-09-20T23:53:57.609Z,4.47
2022-09-20T23:56:24.425Z,4.60
2022-09-20T23:58:51.245Z,4.80
